createdAt,value
2018-06-24T00:02:43.752Z,147794.98
2018-06-24T00:05:14.759Z,147765.14
2018-06-24T00:07:45.866Z,147758.94
2018-06-24T00:10:17.356Z,147753.97
2018-06-24T00:12:48.491Z,147749.00
2018-06-24T00:15:19.546Z,147744.05
2018-06-24T00:17:50.914Z,147747.77
2018-06-24T00:20:21.898Z,147725.37
2018-06-24T00:22:52.911Z,147714.20
2018-06-24T00:25:23.833Z,147700.55
2018-06-24T00:27:54.666Z,147671.95
2018-06-24T00:30:25.681Z,147662.03
2018-06-24T00:32:56.975Z,147665.75
2018-06-24T00:35:28.027Z,147655.81
2018-06-24T00:37:59.090Z,147642.17
2018-06-24T00:40:30.500Z,147624.75
2018-06-24T00:43:01.714Z,147608.61
2018-06-24T00:45:32.826Z,147601.17
2018-06-24T00:48:03.939Z,147596.20
2018-06-24T00:50:35.150Z,147596.20
2018-06-24T00:53:06.011Z,147591.19
2018-06-24T00:55:37.209Z,147598.69
2018-06-24T00:58:09.293Z,147596.20
2018-06-24T01:00:40.541Z,147603.66
2018-06-24T01:03:11.622Z,147597.44
2018-06-24T01:05:42.779Z,147572.58
2018-06-24T01:08:13.974Z,147563.91
2018-06-24T01:10:45.436Z,147575.06
2018-06-24T01:13:16.673Z,147587.47
2018-06-24T01:15:47.994Z,147571.34
2018-06-24T01:18:18.954Z,147540.28
2018-06-24T01:20:50.235Z,147521.63
2018-06-24T01:23:21.606Z,147536.50
2018-06-24T01:25:52.696Z,147540.28
2018-06-24T01:28:23.765Z,147520.38
2018-06-24T01:30:54.618Z,147547.77
2018-06-24T01:33:25.658Z,147529.06
2018-06-24T01:35:57.081Z,147522.86
2018-06-24T01:38:29.458Z,147547.77
2018-06-24T01:41:00.605Z,147551.48
2018-06-24T01:43:31.543Z,147537.80
2018-06-24T01:46:02.767Z,147535.27
2018-06-24T01:48:33.889Z,147501.77
2018-06-24T01:51:05.021Z,147498.00
2018-06-24T01:53:36.296Z,147473.19
2018-06-24T01:56:07.318Z,147478.16
2018-06-24T01:58:38.580Z,147473.19
2018-06-24T02:01:10.490Z,147481.87
2018-06-24T02:03:41.827Z,147495.52
2018-06-24T02:06:13.019Z,147486.84
2018-06-24T02:08:44.153Z,147525.34
2018-06-24T02:11:15.141Z,147525.34
2018-06-24T02:13:46.188Z,147505.50
2018-06-24T02:16:17.276Z,147505.50
2018-06-24T02:18:48.306Z,147540.28
2018-06-24T02:21:19.218Z,147520.38
2018-06-24T02:23:50.529Z,147501.77
2018-06-24T02:26:21.402Z,147507.97
2018-06-24T02:28:52.419Z,147503.02
2018-06-24T02:31:23.515Z,147514.17
2018-06-24T02:33:54.863Z,147524.09
2018-06-24T02:36:25.586Z,147519.14
2018-06-24T02:38:56.591Z,147516.66
2018-06-24T02:41:27.548Z,147529.06
2018-06-24T02:43:58.654Z,147545.28
2018-06-24T02:46:29.694Z,147550.25
2018-06-24T02:49:00.842Z,147561.41
2018-06-24T02:51:32.524Z,147570.09
2018-06-24T02:54:03.590Z,147581.27
2018-06-24T02:56:34.599Z,147599.92
2018-06-24T02:59:05.856Z,147611.09
2018-06-24T03:01:36.873Z,147649.61
2018-06-24T03:04:09.538Z,147684.38
2018-06-24T03:06:40.655Z,147747.77
2018-06-24T03:09:12.422Z,147919.31
2018-06-24T03:11:43.830Z,148117.16
2018-06-24T03:14:15.796Z,148656.33
2018-06-24T03:16:47.158Z,149035.42
2018-06-24T03:19:18.182Z,149213.89
2018-06-24T03:21:49.357Z,149458.63
2018-06-24T03:24:20.343Z,149746.06
2018-06-24T03:26:51.447Z,150173.81
2018-06-24T03:29:22.995Z,150463.05
2018-06-24T03:31:54.280Z,150802.66
2018-06-24T03:34:25.564Z,151078.50
2018-06-24T03:36:56.679Z,151309.41
2018-06-24T03:39:27.822Z,151465.06
2018-06-24T03:41:59.001Z,151551.73
2018-06-24T03:44:30.851Z,151696.17
2018-06-24T03:47:01.825Z,151212.75
2018-06-24T03:49:33.159Z,151386.02
2018-06-24T03:52:04.114Z,151447.50
2018-06-24T03:54:35.161Z,151511.56
2018-06-24T03:57:06.646Z,151419.87
2018-06-24T03:59:37.656Z,151396.05
2018-06-24T04:02:09.006Z,151310.66
2018-06-24T04:04:40.459Z,151368.42
2018-06-24T04:07:11.405Z,151747.67
2018-06-24T04:09:42.719Z,152176.37
2018-06-24T04:12:13.858Z,152382.63
2018-06-24T04:14:44.973Z,152712.44
2018-06-24T04:17:16.506Z,152625.59
2018-06-24T04:19:47.779Z,152958.09
2018-06-24T04:22:18.691Z,153027.37
2018-06-24T04:24:49.975Z,153259.28
2018-06-24T04:27:21.975Z,153251.73
2018-06-24T04:29:53.238Z,153496.34
2018-06-24T04:32:24.324Z,153590.95
2018-06-24T04:34:55.467Z,153232.81
2018-06-24T04:37:26.312Z,153155.94
2018-06-24T04:39:57.354Z,153545.56
2018-06-24T04:42:28.518Z,153733.50
2018-06-24T04:44:59.526Z,153712.05
2018-06-24T04:47:30.778Z,153587.17
2018-06-24T04:50:01.830Z,153310.95
2018-06-24T04:52:33.269Z,153471.11
2018-06-24T04:55:04.469Z,153492.56
2018-06-24T04:57:35.298Z,152445.61
2018-06-24T05:00:06.687Z,152606.69
2018-06-24T05:02:37.311Z,153022.34
2018-06-24T05:05:08.109Z,153636.34
2018-06-24T05:07:38.927Z,153910.17
2018-06-24T05:10:09.747Z,153979.66
2018-06-24T05:12:40.527Z,154094.53
2018-06-24T05:15:11.703Z,154377.47
2018-06-24T05:17:43.451Z,154467.19
2018-06-24T05:20:14.646Z,153834.47
2018-06-24T05:22:45.785Z,153057.63
2018-06-24T05:25:16.791Z,153490.05
2018-06-24T05:27:48.055Z,153902.62
2018-06-24T05:30:19.262Z,153935.44
2018-06-24T05:32:50.268Z,154127.36
2018-06-24T05:35:21.346Z,153839.50
2018-06-24T05:37:52.513Z,153196.25
2018-06-24T05:40:23.459Z,154046.52
2018-06-24T05:42:54.532Z,154395.17
2018-06-24T05:45:25.779Z,153333.66
2018-06-24T05:47:57.186Z,153603.55
2018-06-24T05:50:28.287Z,153809.22
2018-06-24T05:52:59.385Z,154145.00
2018-06-24T05:55:30.546Z,153897.58
2018-06-24T05:58:01.738Z,154078.13
2018-06-24T06:00:32.618Z,154309.25
2018-06-24T06:03:04.196Z,154644.09
2018-06-24T06:05:35.339Z,154594.83
2018-06-24T06:08:06.696Z,154780.66
2018-06-24T06:10:37.448Z,154907.06
2018-06-24T06:13:08.625Z,155042.38
2018-06-24T06:15:39.363Z,154455.78
2018-06-24T06:18:09.949Z,153937.95
2018-06-24T06:20:40.854Z,153713.30
2018-06-24T06:23:11.621Z,153805.44
2018-06-24T06:25:42.474Z,153479.92
2018-06-24T06:28:13.467Z,154281.45
2018-06-24T06:30:44.771Z,153712.05
2018-06-24T06:33:15.406Z,154133.66
2018-06-24T06:35:46.155Z,153572.00
2018-06-24T06:38:16.894Z,153862.23
2018-06-24T06:40:47.602Z,154027.61
2018-06-24T06:43:18.372Z,153869.84
2018-06-24T06:45:49.221Z,154025.08
2018-06-24T06:48:20.588Z,154261.22
2018-06-24T06:50:51.692Z,154268.84
2018-06-24T06:53:22.824Z,153980.91
2018-06-24T06:55:54.352Z,154224.59
2018-06-24T06:58:25.314Z,153566.97
2018-06-24T07:00:56.108Z,153543.03
2018-06-24T07:03:27.482Z,154139.97
2018-06-24T07:05:58.477Z,154153.88
2018-06-24T07:08:29.628Z,154342.05
2018-06-24T07:11:00.981Z,154574.58
2018-06-24T07:13:32.027Z,154578.38
2018-06-24T07:16:03.172Z,154503.81
2018-06-24T07:18:34.362Z,154155.14
2018-06-24T07:21:05.714Z,154006.13
2018-06-24T07:23:36.633Z,154054.08
2018-06-24T07:26:07.720Z,154233.42
2018-06-24T07:28:39.722Z,153718.34
2018-06-24T07:31:10.904Z,153602.28
2018-06-24T07:33:42.009Z,153762.53
2018-06-24T07:36:13.535Z,153555.64
2018-06-24T07:38:44.774Z,153698.19
2018-06-24T07:41:16.080Z,153806.69
2018-06-24T07:43:47.317Z,153428.19
2018-06-24T07:46:18.571Z,152801.88
2018-06-24T07:48:50.547Z,152791.81
2018-06-24T07:51:21.729Z,152402.83
2018-06-24T07:53:52.952Z,152847.20
2018-06-24T07:56:24.328Z,152871.19
2018-06-24T07:58:55.879Z,152751.47
2018-06-24T08:01:27.095Z,152427.97
2018-06-24T08:03:58.165Z,152551.33
2018-06-24T08:06:29.395Z,152924.06
2018-06-24T08:09:00.544Z,152294.64
2018-06-24T08:11:32.898Z,151986.47
2018-06-24T08:14:04.421Z,152210.33
2018-06-24T08:16:35.569Z,151872.09
2018-06-24T08:19:06.680Z,151050.94
2018-06-24T08:21:38.182Z,150875.36
2018-06-24T08:24:09.498Z,150544.50
2018-06-24T08:26:40.785Z,150271.47
2018-06-24T08:29:11.681Z,150017.47
2018-06-24T08:31:42.881Z,149977.39
2018-06-24T08:34:14.215Z,149981.14
2018-06-24T08:36:45.599Z,149893.59
2018-06-24T08:39:16.676Z,149883.61
2018-06-24T08:41:47.966Z,149784.81
2018-06-24T08:44:19.107Z,149846.09
2018-06-24T08:46:50.516Z,149896.09
2018-06-24T08:49:21.746Z,149939.86
2018-06-24T08:51:53.210Z,150012.47
2018-06-24T08:54:24.435Z,150007.42
2018-06-24T08:56:55.530Z,150023.72
2018-06-24T08:59:26.545Z,149983.63
2018-06-24T09:01:57.803Z,150061.25
2018-06-24T09:04:28.941Z,150186.37
2018-06-24T09:07:00.972Z,150236.41
2018-06-24T09:09:32.056Z,150301.53
2018-06-24T09:12:03.601Z,150322.78
2018-06-24T09:14:34.746Z,150359.14
2018-06-24T09:17:05.832Z,150397.95
2018-06-24T09:19:37.861Z,150331.53
2018-06-24T09:22:09.127Z,150177.62
2018-06-24T09:24:40.647Z,150111.28
2018-06-24T09:27:12.087Z,149778.56
2018-06-24T09:29:42.953Z,149937.38
2018-06-24T09:32:14.031Z,149993.63
2018-06-24T09:34:45.199Z,150068.75
2018-06-24T09:37:17.115Z,150133.78
2018-06-24T09:39:48.273Z,150207.66
2018-06-24T09:42:19.400Z,150273.97
2018-06-24T09:44:51.610Z,150337.88
2018-06-24T09:47:23.638Z,150238.91
2018-06-24T09:49:54.726Z,150281.47
2018-06-24T09:52:25.967Z,150215.16
2018-06-24T09:54:57.020Z,150033.70
2018-06-24T09:57:29.299Z,150071.25
2018-06-24T10:00:00.480Z,150157.56
2018-06-24T10:02:32.283Z,150215.16
2018-06-24T10:05:03.124Z,150248.97
2018-06-24T10:07:35.053Z,150380.39
2018-06-24T10:10:05.960Z,150460.53
2018-06-24T10:12:37.036Z,150376.66
2018-06-24T10:15:08.763Z,150411.72
2018-06-24T10:17:40.478Z,150397.95
2018-06-24T10:20:11.597Z,150332.78
2018-06-24T10:22:43.178Z,150344.12
2018-06-24T10:25:14.274Z,150290.27
2018-06-24T10:27:45.493Z,150304.03
2018-06-24T10:30:16.881Z,150409.22
2018-06-24T10:32:48.326Z,150379.16
2018-06-24T10:35:20.263Z,150529.48
2018-06-24T10:37:51.383Z,150461.78
2018-06-24T10:40:22.592Z,150334.03
2018-06-24T10:42:53.949Z,150450.53
2018-06-24T10:45:25.223Z,150521.94
2018-06-24T10:47:56.324Z,150499.41
2018-06-24T10:50:27.652Z,150405.47
2018-06-24T10:52:58.622Z,150474.30
2018-06-24T10:55:29.980Z,150451.78
2018-06-24T10:58:01.163Z,150474.30
2018-06-24T11:00:32.347Z,150506.92
2018-06-24T11:03:03.844Z,150424.22
2018-06-24T11:05:34.722Z,150433.03
2018-06-24T11:08:05.831Z,150349.13
2018-06-24T11:10:36.866Z,150153.81
2018-06-24T11:13:08.734Z,150300.27
2018-06-24T11:15:39.778Z,150299.03
2018-06-24T11:18:10.942Z,150211.41
2018-06-24T11:20:41.917Z,150128.78
2018-06-24T11:23:13.319Z,150206.41
2018-06-24T11:25:44.513Z,150087.48
2018-06-24T11:28:15.721Z,150215.16
2018-06-24T11:30:46.651Z,150263.97
2018-06-24T11:33:17.861Z,150301.53
2018-06-24T11:35:49.049Z,150242.72
2018-06-24T11:38:20.544Z,150211.41
2018-06-24T11:40:51.512Z,150215.16
2018-06-24T11:43:23.250Z,150096.23
2018-06-24T11:45:54.462Z,150082.48
2018-06-24T11:48:25.537Z,150031.20
2018-06-24T11:50:56.723Z,149956.11
2018-06-24T11:53:27.957Z,149918.63
2018-06-24T11:55:59.359Z,149727.33
2018-06-24T11:58:30.576Z,149681.09
2018-06-24T12:01:01.668Z,149714.80
2018-06-24T12:03:32.900Z,149572.31
2018-06-24T12:06:04.324Z,149681.09
2018-06-24T12:08:35.343Z,149799.78
2018-06-24T12:11:06.818Z,149681.09
2018-06-24T12:13:38.063Z,149811.03
2018-06-24T12:16:08.951Z,149663.52
2018-06-24T12:18:40.188Z,149641.05
2018-06-24T12:21:11.188Z,149828.56
2018-06-24T12:23:42.221Z,149933.62
2018-06-24T12:26:13.512Z,149916.13
2018-06-24T12:28:44.701Z,149977.39
2018-06-24T12:31:16.016Z,149931.13
2018-06-24T12:33:47.401Z,149908.59
2018-06-24T12:36:18.656Z,149907.34
2018-06-24T12:38:49.683Z,149947.36
2018-06-24T12:41:20.863Z,149869.88
2018-06-24T12:43:51.868Z,149906.09
2018-06-24T12:46:22.989Z,149622.28
2018-06-24T12:48:54.774Z,149614.80
2018-06-24T12:51:26.500Z,149693.58
2018-06-24T12:53:57.758Z,149659.78
2018-06-24T12:56:28.956Z,149606.06
2018-06-24T12:59:00.152Z,149518.61
2018-06-24T13:01:31.367Z,149541.11
2018-06-24T13:04:02.895Z,149566.06
2018-06-24T13:06:33.980Z,149624.83
2018-06-24T13:09:06.885Z,149668.50
2018-06-24T13:11:37.769Z,149644.80
2018-06-24T13:14:08.931Z,149674.84
2018-06-24T13:16:39.993Z,149623.53
2018-06-24T13:19:11.076Z,149707.31
2018-06-24T13:21:42.293Z,149731.08
2018-06-24T13:24:13.664Z,149642.30
2018-06-24T13:26:44.880Z,149701.06
2018-06-24T13:29:16.270Z,149707.31
2018-06-24T13:31:47.362Z,149732.31
2018-06-24T13:34:18.678Z,149743.56
2018-06-24T13:36:50.010Z,149706.06
2018-06-24T13:39:20.944Z,149519.86
2018-06-24T13:41:52.175Z,149537.38
2018-06-24T13:44:23.674Z,149471.09
2018-06-24T13:46:55.255Z,149476.09
2018-06-24T13:49:26.659Z,149524.84
2018-06-24T13:51:58.015Z,149602.31
2018-06-24T13:54:29.217Z,149559.83
2018-06-24T13:57:00.509Z,149616.03
2018-06-24T13:59:31.532Z,149578.59
2018-06-24T14:02:02.978Z,149571.06
2018-06-24T14:04:34.153Z,149613.55
2018-06-24T14:07:06.102Z,149623.53
2018-06-24T14:09:37.524Z,149626.08
2018-06-24T14:12:09.687Z,149593.58
2018-06-24T14:14:40.953Z,149561.08
2018-06-24T14:17:13.155Z,149543.61
2018-06-24T14:19:44.425Z,149413.66
2018-06-24T14:22:15.892Z,149286.25
2018-06-24T14:24:48.097Z,149266.31
2018-06-24T14:27:19.241Z,149193.91
2018-06-24T14:29:50.936Z,149180.19
2018-06-24T14:32:22.455Z,149211.41
2018-06-24T14:34:53.826Z,149276.28
2018-06-24T14:37:25.799Z,149295.03
2018-06-24T14:39:57.020Z,149328.75
2018-06-24T14:42:28.585Z,149332.50
2018-06-24T14:45:00.191Z,149346.27
2018-06-24T14:47:31.585Z,149404.94
2018-06-24T14:50:02.943Z,149453.63
2018-06-24T14:52:33.985Z,149456.12
2018-06-24T14:55:05.352Z,149551.09
2018-06-24T14:57:37.053Z,149613.55
2018-06-24T15:00:08.395Z,149603.56
2018-06-24T15:02:42.157Z,149649.78
2018-06-24T15:05:13.898Z,149679.84
2018-06-24T15:07:45.682Z,149704.81
2018-06-24T15:10:18.265Z,149727.33
2018-06-24T15:12:49.367Z,149716.05
2018-06-24T15:15:20.510Z,149558.58
2018-06-24T15:17:51.878Z,149571.06
2018-06-24T15:20:24.691Z,149511.13
2018-06-24T15:22:55.939Z,149576.06
2018-06-24T15:25:27.257Z,149597.31
2018-06-24T15:27:58.581Z,149537.38
2018-06-24T15:30:29.924Z,149483.63
2018-06-24T15:33:01.400Z,149486.12
2018-06-24T15:35:32.711Z,149526.09
2018-06-24T15:38:03.638Z,149532.37
2018-06-24T15:40:34.810Z,149557.34
2018-06-24T15:43:06.332Z,149313.78
2018-06-24T15:45:37.590Z,149396.20
2018-06-24T15:48:08.802Z,149438.66
2018-06-24T15:50:41.054Z,149347.52
2018-06-24T15:53:12.658Z,149411.17
2018-06-24T15:55:44.482Z,149432.38
2018-06-24T15:58:15.860Z,149428.64
2018-06-24T16:00:47.200Z,149290.00
2018-06-24T16:03:18.965Z,149134.02
2018-06-24T16:05:50.111Z,149187.67
2018-06-24T16:08:21.295Z,149090.30
2018-06-24T16:10:52.832Z,149150.22
2018-06-24T16:13:24.193Z,149156.50
2018-06-24T16:15:55.675Z,149162.73
2018-06-24T16:18:26.972Z,149177.69
2018-06-24T16:20:59.120Z,149114.03
2018-06-24T16:23:30.912Z,149101.52
2018-06-24T16:26:02.206Z,149114.03
2018-06-24T16:28:33.272Z,149135.27
2018-06-24T16:31:04.386Z,149117.77
2018-06-24T16:33:35.584Z,149097.78
2018-06-24T16:36:07.275Z,149099.03
2018-06-24T16:38:38.510Z,149067.87
2018-06-24T16:41:09.757Z,149035.42
2018-06-24T16:43:42.026Z,149024.20
2018-06-24T16:46:13.287Z,148976.81
2018-06-24T16:48:44.667Z,149004.22
2018-06-24T16:51:16.175Z,148990.52
2018-06-24T16:53:47.474Z,148971.83
2018-06-24T16:56:18.623Z,148965.59
2018-06-24T16:58:49.931Z,148908.16
2018-06-24T17:01:21.111Z,148901.92
2018-06-24T17:03:52.736Z,148899.44
2018-06-24T17:06:24.028Z,148858.28
2018-06-24T17:08:55.433Z,148882.00
2018-06-24T17:11:27.516Z,148886.97
2018-06-24T17:13:59.449Z,148894.44
2018-06-24T17:16:30.804Z,148889.47
2018-06-24T17:19:01.986Z,148888.22
2018-06-24T17:21:33.524Z,148882.00
2018-06-24T17:24:05.050Z,148882.00
2018-06-24T17:26:36.256Z,148864.50
2018-06-24T17:29:07.448Z,148830.87
2018-06-24T17:31:38.624Z,148832.12
2018-06-24T17:34:10.697Z,148798.45
2018-06-24T17:36:42.006Z,148766.03
2018-06-24T17:39:13.696Z,148771.02
2018-06-24T17:41:46.864Z,148774.80
2018-06-24T17:44:18.739Z,148719.92
2018-06-24T17:46:50.198Z,148685.00
2018-06-24T17:49:21.352Z,148683.77
2018-06-24T17:51:52.710Z,148675.00
2018-06-24T17:54:23.928Z,148670.03
2018-06-24T17:56:55.247Z,148650.11
2018-06-24T17:59:26.276Z,148650.11
2018-06-24T18:01:57.446Z,148657.58
2018-06-24T18:04:28.801Z,148655.09
2018-06-24T18:07:00.189Z,148681.28
2018-06-24T18:09:31.421Z,148642.64
2018-06-24T18:12:02.782Z,148655.09
2018-06-24T18:14:34.461Z,148645.13
2018-06-24T18:17:05.799Z,148637.66
2018-06-24T18:19:37.120Z,148631.44
2018-06-24T18:22:08.545Z,148635.17
2018-06-24T18:24:39.842Z,148628.91
2018-06-24T18:27:10.878Z,148622.67
2018-06-24T18:29:42.028Z,148612.72
2018-06-24T18:32:13.367Z,148623.92
2018-06-24T18:34:44.579Z,148625.17
2018-06-24T18:37:15.845Z,148615.22
2018-06-24T18:39:47.073Z,148612.72
2018-06-24T18:42:18.262Z,148597.78
2018-06-24T18:44:49.398Z,148597.78
2018-06-24T18:47:20.771Z,148602.77
2018-06-24T18:49:52.109Z,148590.31
2018-06-24T18:52:23.601Z,148581.56
2018-06-24T18:54:54.731Z,148584.09
2018-06-24T18:57:26.020Z,148570.36
2018-06-24T18:59:56.988Z,148532.98
2018-06-24T19:02:29.325Z,148524.27
2018-06-24T19:05:00.563Z,148513.06
2018-06-24T19:07:31.412Z,148511.83
2018-06-24T19:10:02.556Z,148528.00
2018-06-24T19:12:34.379Z,148530.50
2018-06-24T19:15:05.739Z,148538.00
2018-06-24T19:17:42.484Z,148540.50
2018-06-24T19:20:13.683Z,148538.00
2018-06-24T19:22:44.816Z,148525.52
2018-06-24T19:25:15.954Z,148508.09
2018-06-24T19:27:47.457Z,148501.83
2018-06-24T19:30:21.646Z,148508.09
2018-06-24T19:32:52.730Z,148483.11
2018-06-24T19:35:23.796Z,148481.88
2018-06-24T19:37:54.681Z,148478.14
2018-06-24T19:40:25.673Z,148476.89
2018-06-24T19:42:56.883Z,148458.23
2018-06-24T19:45:28.153Z,148475.66
2018-06-24T19:48:00.181Z,148484.36
2018-06-24T19:50:31.470Z,148488.09
2018-06-24T19:53:03.464Z,148506.84
2018-06-24T19:55:34.500Z,148518.05
2018-06-24T19:58:05.775Z,148504.36
2018-06-24T20:00:36.877Z,148505.61
2018-06-24T20:03:08.907Z,148485.61
2018-06-24T20:05:40.185Z,148466.94
2018-06-24T20:08:11.287Z,148483.11
2018-06-24T20:10:42.411Z,148496.84
2018-06-24T20:13:13.875Z,148484.36
2018-06-24T20:15:44.887Z,148485.61
2018-06-24T20:18:16.045Z,148496.84
2018-06-24T20:20:47.075Z,148498.09
2018-06-24T20:23:25.135Z,148500.58
2018-06-24T20:25:56.223Z,148488.09
2018-06-24T20:28:27.458Z,148493.11
2018-06-24T20:30:58.945Z,148469.44
2018-06-24T20:33:30.151Z,148469.44
2018-06-24T20:36:01.244Z,148448.28
2018-06-24T20:38:32.365Z,148447.03
2018-06-24T20:41:03.597Z,148449.53
2018-06-24T20:43:34.694Z,148443.31
2018-06-24T20:46:06.240Z,148458.23
2018-06-24T20:48:37.271Z,148464.45
2018-06-24T20:51:08.798Z,148454.50
2018-06-24T20:53:39.975Z,148463.22
2018-06-24T20:56:11.198Z,148474.41
2018-06-24T20:58:42.557Z,148478.14
2018-06-24T21:01:14.770Z,148476.89
2018-06-24T21:03:45.922Z,148456.98
2018-06-24T21:06:17.058Z,148478.14
2018-06-24T21:08:50.368Z,148484.36
2018-06-24T21:11:21.516Z,148483.11
2018-06-24T21:13:52.883Z,148474.41
2018-06-24T21:16:24.065Z,148478.14
2018-06-24T21:18:56.528Z,148498.09
2018-06-24T21:21:27.729Z,148508.09
2018-06-24T21:23:58.722Z,148489.38
2018-06-24T21:26:29.935Z,148486.84
2018-06-24T21:29:01.026Z,148483.11
2018-06-24T21:31:32.981Z,148485.61
2018-06-24T21:34:04.492Z,148476.89
2018-06-24T21:36:35.840Z,148501.83
2018-06-24T21:39:09.272Z,148509.34
2018-06-24T21:41:40.372Z,148503.06
2018-06-24T21:44:11.454Z,148509.34
2018-06-24T21:46:43.513Z,148503.06
2018-06-24T21:49:14.647Z,148486.84
2018-06-24T21:51:45.797Z,148460.72
2018-06-24T21:54:17.085Z,148465.69
2018-06-24T21:56:49.425Z,148440.77
2018-06-24T21:59:21.737Z,148410.91
2018-06-24T22:01:52.901Z,148376.03
2018-06-24T22:04:24.330Z,148339.92
2018-06-24T22:06:55.675Z,148300.12
2018-06-24T22:09:26.692Z,148280.14
2018-06-24T22:11:58.345Z,148260.25
2018-06-24T22:14:29.597Z,148236.58
2018-06-24T22:17:00.733Z,148226.63
2018-06-24T22:19:32.071Z,148202.97
2018-06-24T22:22:03.084Z,148181.83
2018-06-24T22:24:34.205Z,148161.94
2018-06-24T22:27:06.161Z,148132.06
2018-06-24T22:29:37.208Z,148114.67
2018-06-24T22:32:08.345Z,148112.19
2018-06-24T22:34:40.638Z,148107.16
2018-06-24T22:37:11.527Z,148099.70
2018-06-24T22:39:42.502Z,148091.00
2018-06-24T22:42:13.530Z,148072.37
2018-06-24T22:44:44.892Z,148074.84
2018-06-24T22:47:17.001Z,148052.44
2018-06-24T22:49:48.340Z,148027.53
2018-06-24T22:52:19.633Z,148022.56
2018-06-24T22:54:51.045Z,148022.56
2018-06-24T22:57:22.257Z,147996.44
2018-06-24T23:00:05.587Z,147990.22
2018-06-24T23:02:36.470Z,147982.77
2018-06-24T23:05:08.303Z,147974.06
2018-06-24T23:07:39.998Z,147966.56
2018-06-24T23:10:12.359Z,147967.81
2018-06-24T23:12:43.749Z,147962.84
2018-06-24T23:15:14.904Z,147954.16
2018-06-24T23:17:46.126Z,147950.42
2018-06-24T23:20:17.489Z,147945.45
2018-06-24T23:22:48.705Z,147945.45
2018-06-24T23:25:21.774Z,147936.75
2018-06-24T23:27:53.676Z,147920.56
2018-06-24T23:30:25.002Z,147930.55
2018-06-24T23:32:56.703Z,147921.81
2018-06-24T23:35:27.834Z,147925.58
2018-06-24T23:37:59.251Z,147928.06
2018-06-24T23:40:30.370Z,147909.38
2018-06-24T23:43:02.502Z,147914.34
2018-06-24T23:45:34.520Z,147905.66
2018-06-24T23:48:05.883Z,147899.45
2018-06-24T23:50:37.189Z,147904.42
2018-06-24T23:53:08.794Z,147929.31
2018-06-24T23:55:40.135Z,147936.75
2018-06-24T23:58:11.198Z,147924.34
